All
Ginbata Airport (Roy Hill Mine, Western Australia) GBW Weather
There is no TAF data available at GBW. Showing TAF data for YCHK (29 mi W).
CKW Terminal Area Forecast (no data for GBW)
| Date | Time (AWST) | Flight Rules | Wind Dir. | Speed | Type | Height AGL (ft) | Visibility | Remarks | ||||||
|---|---|---|---|---|---|---|---|---|---|---|---|---|---|---|
| 05-May | 09:00PM | VFR | 120° | 12 kt | Clouds and Visibility are OK | >= 6 miles | ||||||||
| 05-May | 08:00PM | VFR | 120° | 12 kt | Clouds and Visibility are OK | >= 6 miles | ||||||||
| 05-May | 07:00PM | VFR | 120° | 12 kt | Clouds and Visibility are OK | >= 6 miles | ||||||||
| 05-May | 06:00PM | VFR | 120° | 12 kt | Clouds and Visibility are OK | >= 6 miles | ||||||||
| 05-May | 05:00PM | VFR | 120° | 12 kt | Clouds and Visibility are OK | >= 6 miles | ||||||||
| 05-May | 04:00PM | VFR | 120° | 12 kt | Clouds and Visibility are OK | >= 6 miles | ||||||||
| 05-May | 03:00PM | VFR | 120° | 12 kt | Clouds and Visibility are OK | >= 6 miles | ||||||||
| 05-May | 02:00PM | VFR | 120° | 12 kt | Clouds and Visibility are OK | >= 6 miles | ||||||||
| 05-May | 01:00PM | VFR | 120° | 12 kt | Clouds and Visibility are OK | >= 6 miles | ||||||||
| 05-May | 12:00PM | VFR | 120° | 12 kt | Clouds and Visibility are OK | >= 6 miles | ||||||||
| 05-May | 11:00AM | VFR | 120° | 12 kt | Clouds and Visibility are OK | >= 6 miles | ||||||||
| 05-May | 10:00AM | VFR | 120° | 12 kt | Clouds and Visibility are OK | >= 6 miles | ||||||||
There is no METAR data available at GBW. Showing METAR data for YCHK (29 mi W).
Recent CKW METAR history (no data for GBW)
| Date | Time (AWST) | Flight Rules | Wind Dir. | Speed | Type | Height AGL (ft) | Visibility | Temp (°C) | Temp (°F) | Dew Point (°C) | Dew Point (°F) | Rel. Humid. | Pressure | Density Altitude | Remarks |
|---|---|---|---|---|---|---|---|---|---|---|---|---|---|---|---|
| 05-May | 10:00AM | VFR | 110° | 12 kt | 10000 meters | 20° | 68° | 1° | 33° | 28% | 1022 mb | 2,032 ft | |||
| 05-May | 09:00AM | VFR | 110° | 11 kt | 10000 meters | 18° | 64° | 2° | 35° | 34% | 1022 mb | 1,792 ft | |||
| 05-May | 08:00AM | VFR | 130° | 9 kt | 10000 meters | 15° | 59° | 1° | 33° | 39% | 1022 mb | 1,432 ft | |||
| 05-May | 07:00AM | VFR | 160° | 6 kt | 10000 meters | 12° | 53° | -1° | 30° | 40% | 1022 mb | 1,072 ft | |||
| 05-May | 06:00AM | VFR | 160° | 6 kt | 10000 meters | 12° | 53° | -1° | 30° | 40% | 1021 mb | 1,101 ft | |||
| 05-May | 05:00AM | VFR | 150° | 5 kt | 10000 meters | 13° | 55° | -2° | 28° | 35% | 1021 mb | 1,221 ft | |||
| 05-May | 04:00AM | VFR | 130° | 7 kt | 10000 meters | 14° | 57° | -2° | 28° | 33% | 1020 mb | 1,371 ft | |||
| 05-May | 03:00AM | VFR | 120° | 6 kt | 10000 meters | 15° | 59° | -3° | 26° | 29% | 1020 mb | 1,491 ft | |||
| 05-May | 02:00AM | VFR | 130° | 6 kt | 10000 meters | 16° | 60° | -3° | 26° | 27% | 1021 mb | 1,581 ft | |||
| 05-May | 01:00AM | VFR | 120° | 5 kt | 10000 meters | 16° | 60° | -3° | 26° | 27% | 1021 mb | 1,581 ft | |||
| 05-May | 12:00AM | VFR | 130° | 5 kt | 10000 meters | 17° | 62° | -3° | 26° | 25% | 1021 mb | 1,701 ft | |||
| 04-May | 11:00PM | VFR | 130° | 4 kt | 10000 meters | 18° | 64° | -2° | 28° | 26% | 1021 mb | 1,821 ft | |||
| 04-May | 10:00PM | VFR | 130° | 4 kt | 10000 meters | 19° | 66° | -1° | 30° | 26% | 1021 mb | 1,941 ft | |||
| 04-May | 09:00PM | VFR | 130° | 7 kt | 10000 meters | 21° | 69° | -1° | 30° | 23% | 1021 mb | 2,181 ft | |||
| 04-May | 08:00PM | VFR | 140° | 7 kt | 10000 meters | 23° | 73° | -1° | 30° | 20% | 1021 mb | 2,421 ft | |||
| 04-May | 07:00PM | VFR | 130° | 6 kt | 10000 meters | 24° | 75° | -1° | 30° | 19% | 1020 mb | 2,571 ft | |||
| 04-May | 06:00PM | VFR | 140° | 8 kt | 10000 meters | 25° | 77° | 0° | 32° | 19% | 1020 mb | 2,691 ft | |||
| 04-May | 05:00PM | VFR | 140° | 11 kt | 10000 meters | 26° | 78° | 0° | 32° | 18% | 1019 mb | 2,841 ft | |||
| 04-May | 04:00PM | VFR | 130° | 11 kt | 10000 meters | 27° | 80° | 0° | 32° | 17% | 1019 mb | 2,961 ft | |||
| 04-May | 03:00PM | VFR | 130° | 11 kt | 10000 meters | 26° | 78° | 0° | 32° | 18% | 1019 mb | 2,841 ft | |||
| 04-May | 02:00PM | VFR | 150° | 11 kt | 10000 meters | 26° | 78° | -1° | 30° | 17% | 1019 mb | 2,841 ft | |||
| 04-May | 01:00PM | VFR | 130° | 13 kt | 10000 meters | 25° | 77° | -1° | 30° | 18% | 1020 mb | 2,691 ft | |||
| 04-May | 12:00PM | VFR | 110° | 11 kt | 10000 meters | 24° | 75° | 0° | 32° | 20% | 1021 mb | 2,541 ft | |||
| 04-May | 11:00AM | VFR | 130° | 11 kt | 10000 meters | 22° | 71° | 0° | 32° | 23% | 1022 mb | 2,272 ft |
Login
| Your browser is unsupported. upgrade your browser |
